createdAt,value
2019-05-06T00:00:20.066Z,12.18
2019-05-06T00:02:50.391Z,8.93
2019-05-06T00:05:20.732Z,10.00
2019-05-06T00:07:54.728Z,9.93
2019-05-06T00:10:35.157Z,11.63
2019-05-06T00:13:05.920Z,11.33
2019-05-06T00:15:36.258Z,6.72
2019-05-06T00:18:06.587Z,8.33
2019-05-06T00:20:36.938Z,8.55
2019-05-06T00:23:11.565Z,7.30
2019-05-06T00:25:46.479Z,8.10
2019-05-06T00:28:24.280Z,7.80
2019-05-06T00:31:14.002Z,7.62
2019-05-06T00:33:44.352Z,6.33
2019-05-06T00:36:14.782Z,6.17
2019-05-06T00:38:46.751Z,8.30
2019-05-06T00:41:30.571Z,8.13
2019-05-06T00:44:00.871Z,8.20
2019-05-06T00:46:31.463Z,9.35
2019-05-06T00:49:03.695Z,7.97
2019-05-06T00:51:34.077Z,7.00
2019-05-06T00:54:06.066Z,10.08
2019-05-06T00:56:36.404Z,7.10
2019-05-06T00:59:06.725Z,9.08
2019-05-06T01:01:37.158Z,8.65
2019-05-06T01:04:07.499Z,7.47
2019-05-06T01:06:37.838Z,6.87
2019-05-06T01:09:11.034Z,9.75
2019-05-06T01:11:42.142Z,9.70
2019-05-06T01:14:14.841Z,6.95
2019-05-06T01:16:45.392Z,6.37
2019-05-06T01:19:15.740Z,9.83
2019-05-06T01:21:46.078Z,8.50
2019-05-06T01:24:16.404Z,8.70
2019-05-06T01:26:46.742Z,8.48
2019-05-06T01:29:17.062Z,9.40
2019-05-06T01:31:47.406Z,7.50
2019-05-06T01:34:17.727Z,10.90
2019-05-06T01:36:48.063Z,9.25
2019-05-06T01:39:20.033Z,8.78
2019-05-06T01:41:53.636Z,7.33
2019-05-06T01:44:24.461Z,8.90
2019-05-06T01:46:54.841Z,8.90
2019-05-06T01:49:25.431Z,10.35
2019-05-06T01:51:55.775Z,10.00
2019-05-06T01:54:26.098Z,8.95
2019-05-06T01:56:56.433Z,8.95
2019-05-06T01:59:26.758Z,9.43
2019-05-06T02:02:01.028Z,7.55
2019-05-06T02:04:29.119Z,8.03
2019-05-06T02:06:59.460Z,10.58
2019-05-06T02:09:29.786Z,9.18
2019-05-06T02:12:00.124Z,8.23
2019-05-06T02:14:30.453Z,10.28
2019-05-06T02:17:03.651Z,9.25
2019-05-06T02:19:34.899Z,8.28
2019-05-06T02:22:09.618Z,8.28
2019-05-06T02:24:41.598Z,9.03
2019-05-06T02:27:13.850Z,9.50
2019-05-06T02:29:48.329Z,8.75
2019-05-06T02:32:26.011Z,7.10
2019-05-06T02:34:56.615Z,7.10
2019-05-06T02:37:28.588Z,10.25
2019-05-06T02:39:58.904Z,9.63
2019-05-06T02:42:29.583Z,9.43
2019-05-06T02:44:59.865Z,7.35
2019-05-06T02:47:34.258Z,8.75
2019-05-06T02:50:06.271Z,8.23
2019-05-06T02:52:36.617Z,9.15
2019-05-06T02:55:07.782Z,8.98
2019-05-06T02:57:39.097Z,10.85
2019-05-06T03:00:19.114Z,9.83
2019-05-06T03:02:49.412Z,6.72
2019-05-06T03:05:19.734Z,10.50
2019-05-06T03:07:50.076Z,9.08
2019-05-06T03:10:24.363Z,7.97
2019-05-06T03:12:54.135Z,8.08
2019-05-06T03:15:24.441Z,7.58
2019-05-06T03:17:55.570Z,9.83
2019-05-06T03:20:57.371Z,9.60
2019-05-06T03:23:48.700Z,8.38
2019-05-06T03:26:19.028Z,8.53
2019-05-06T03:28:49.358Z,8.33
2019-05-06T03:31:19.716Z,8.40
2019-05-06T03:34:36.005Z,8.85
2019-05-06T03:36:48.159Z,8.58
2019-05-06T03:39:13.942Z,10.35
2019-05-06T03:41:44.394Z,13.68
2019-05-06T03:44:16.710Z,8.60
2019-05-06T03:47:05.694Z,10.50
2019-05-06T03:49:54.100Z,8.30
2019-05-06T03:52:23.642Z,9.48
2019-05-06T03:54:55.761Z,8.75
2019-05-06T03:57:28.865Z,8.60
2019-05-06T04:00:04.293Z,10.27
2019-05-06T04:02:34.051Z,9.08
2019-05-06T04:05:24.055Z,8.30
2019-05-06T04:07:54.922Z,9.25
2019-05-06T04:10:25.255Z,9.85
2019-05-06T04:12:56.693Z,8.88
2019-05-06T04:15:30.029Z,9.33
2019-05-06T04:18:03.842Z,9.30
2019-05-06T04:20:43.541Z,11.08
2019-05-06T04:23:15.535Z,14.00
2019-05-06T04:25:59.734Z,8.37
2019-05-06T04:28:34.194Z,10.20
2019-05-06T04:31:05.233Z,10.03
2019-05-06T04:33:35.885Z,8.05
2019-05-06T04:36:06.234Z,9.60
2019-05-06T04:38:36.563Z,8.90
2019-05-06T04:41:06.977Z,10.80
2019-05-06T04:43:37.379Z,10.72
2019-05-06T04:46:07.714Z,9.80
2019-05-06T04:48:38.115Z,8.68
2019-05-06T04:51:08.516Z,9.38
2019-05-06T04:53:38.850Z,10.85
2019-05-06T04:56:09.658Z,10.75
2019-05-06T04:58:42.825Z,11.30
2019-05-06T05:01:15.728Z,12.03
2019-05-06T05:03:44.966Z,9.83
2019-05-06T05:06:15.309Z,9.63
2019-05-06T05:08:45.706Z,11.48
2019-05-06T05:11:22.614Z,9.45
2019-05-06T05:17:23.750Z,10.98
2019-05-06T05:19:54.281Z,12.68
2019-05-06T05:22:36.734Z,9.68
2019-05-06T05:25:26.453Z,8.43
2019-05-06T05:27:56.784Z,11.83
2019-05-06T05:30:27.546Z,9.88
2019-05-06T05:32:57.901Z,11.50
2019-05-06T05:35:28.304Z,11.63
2019-05-06T05:37:58.778Z,12.60
2019-05-06T05:40:29.114Z,12.30
2019-05-06T05:43:22.329Z,9.23
2019-05-06T05:45:52.829Z,10.48
2019-05-06T05:51:29.373Z,11.88
2019-05-06T05:54:02.067Z,8.40
2019-05-06T05:56:32.931Z,8.83
2019-05-06T05:59:03.555Z,17.02
2019-05-06T06:01:34.108Z,8.55
2019-05-06T06:04:04.638Z,9.78
2019-05-06T06:06:35.039Z,8.10
2019-05-06T06:09:07.882Z,8.33
2019-05-06T06:11:41.980Z,10.72
2019-05-06T06:14:13.598Z,9.10
2019-05-06T06:16:48.428Z,8.20
2019-05-06T06:19:23.386Z,10.50
2019-05-06T06:21:55.418Z,10.58
2019-05-06T06:24:32.187Z,7.85
2019-05-06T06:27:03.250Z,16.95
2019-05-06T06:29:34.655Z,10.90
2019-05-06T06:32:13.754Z,8.28
2019-05-06T06:34:48.544Z,12.73
2019-05-06T06:37:33.248Z,9.30
2019-05-06T06:40:06.170Z,9.58
2019-05-06T06:42:36.561Z,7.47
2019-05-06T06:45:07.699Z,10.13
2019-05-06T06:47:38.029Z,11.22
2019-05-06T06:50:09.106Z,9.60
2019-05-06T06:52:39.441Z,9.13
2019-05-06T06:55:10.208Z,9.58
2019-05-06T06:57:52.044Z,10.60
2019-05-06T07:03:36.158Z,8.75
2019-05-06T07:06:08.131Z,8.13
2019-05-06T07:08:38.473Z,8.60
2019-05-06T07:11:08.819Z,11.38
2019-05-06T07:13:43.769Z,9.93
2019-05-06T07:16:14.112Z,13.50
2019-05-06T07:18:44.454Z,9.50
2019-05-06T07:21:16.442Z,9.28
2019-05-06T07:23:46.777Z,9.93
2019-05-06T07:26:18.765Z,9.13
2019-05-06T07:28:49.109Z,10.88
2019-05-06T07:31:23.685Z,9.53
2019-05-06T07:33:52.272Z,8.95
2019-05-06T07:36:22.892Z,10.32
2019-05-06T07:38:53.235Z,7.67
2019-05-06T07:41:32.858Z,10.93
2019-05-06T07:44:08.086Z,13.22
2019-05-06T07:46:45.979Z,10.48
2019-05-06T07:49:16.310Z,10.85
2019-05-06T07:51:46.663Z,11.63
2019-05-06T07:54:17.003Z,10.88
2019-05-06T07:56:47.355Z,12.30
2019-05-06T07:59:19.165Z,10.48
2019-05-06T08:01:49.524Z,8.50
2019-05-06T08:04:19.864Z,10.20
2019-05-06T08:06:52.207Z,12.00
2019-05-06T08:09:22.323Z,12.13
2019-05-06T08:11:53.163Z,12.13
2019-05-06T08:14:25.186Z,9.68
2019-05-06T08:16:57.168Z,9.88
2019-05-06T08:19:27.584Z,10.78
2019-05-06T08:22:02.814Z,13.70
2019-05-06T08:24:33.325Z,10.05
2019-05-06T08:27:04.086Z,14.63
2019-05-06T08:29:35.403Z,10.48
2019-05-06T08:32:05.843Z,11.48
2019-05-06T08:34:36.454Z,12.35
2019-05-06T08:37:08.454Z,11.60
2019-05-06T08:39:38.787Z,10.60
2019-05-06T08:42:09.140Z,14.93
2019-05-06T08:44:39.499Z,11.20
2019-05-06T08:47:09.808Z,9.53
2019-05-06T08:49:56.677Z,11.28
2019-05-06T08:52:28.661Z,13.28
2019-05-06T08:55:04.716Z,12.98
2019-05-06T08:57:35.091Z,9.05
2019-05-06T09:00:06.534Z,12.33
2019-05-06T09:02:37.058Z,12.10
2019-05-06T09:05:08.066Z,10.72
2019-05-06T09:07:38.482Z,12.45
2019-05-06T09:10:08.963Z,10.95
2019-05-06T09:12:39.317Z,12.73
2019-05-06T09:15:12.436Z,12.70
2019-05-06T09:17:42.400Z,12.37
2019-05-06T09:20:13.049Z,10.05
2019-05-06T09:22:43.400Z,12.03
2019-05-06T09:25:14.053Z,12.63
2019-05-06T09:27:48.815Z,14.38
2019-05-06T09:30:25.772Z,9.23
2019-05-06T09:32:56.122Z,11.60
2019-05-06T09:35:26.453Z,9.70
2019-05-06T09:37:56.804Z,10.53
2019-05-06T09:40:27.138Z,10.10
2019-05-06T09:42:57.483Z,8.03
2019-05-06T09:45:27.828Z,10.60
2019-05-06T09:48:05.932Z,10.45
2019-05-06T09:50:45.440Z,9.13
2019-05-06T09:53:15.244Z,11.28
2019-05-06T09:56:05.582Z,8.80
2019-05-06T09:58:37.563Z,6.75
2019-05-06T10:01:08.174Z,7.37
2019-05-06T10:03:39.686Z,8.10
2019-05-06T10:06:10.020Z,7.33
2019-05-06T10:08:40.428Z,6.87
2019-05-06T10:11:10.833Z,6.65
2019-05-06T10:13:43.140Z,7.85
2019-05-06T10:16:13.583Z,6.05
2019-05-06T10:18:43.917Z,7.37
2019-05-06T10:21:14.248Z,7.33
2019-05-06T10:23:44.605Z,6.60
2019-05-06T10:26:14.938Z,8.50
2019-05-06T10:28:52.376Z,6.58
2019-05-06T10:31:22.814Z,8.43
2019-05-06T10:34:13.973Z,9.20
2019-05-06T10:37:15.452Z,6.33
2019-05-06T10:39:48.786Z,8.45
2019-05-06T10:42:23.753Z,8.53
2019-05-06T10:45:18.223Z,7.67
2019-05-06T10:47:48.554Z,6.92
2019-05-06T10:50:18.917Z,8.13
2019-05-06T10:53:07.255Z,7.42
2019-05-06T10:55:42.618Z,7.50
2019-05-06T10:58:12.846Z,7.55
2019-05-06T11:00:43.325Z,10.58
2019-05-06T11:03:22.655Z,7.40
2019-05-06T11:05:53.770Z,10.25
2019-05-06T11:08:24.131Z,11.43
2019-05-06T11:10:54.486Z,9.50
2019-05-06T11:13:24.831Z,11.30
2019-05-06T11:15:55.761Z,10.40
2019-05-06T11:18:26.102Z,12.65
2019-05-06T11:20:56.824Z,10.35
2019-05-06T11:23:27.156Z,13.25
2019-05-06T11:25:57.507Z,9.98
2019-05-06T11:28:42.588Z,12.18
2019-05-06T11:31:17.838Z,10.28
2019-05-06T11:33:49.810Z,10.72
2019-05-06T11:36:32.323Z,13.38
2019-05-06T11:39:02.767Z,13.25
2019-05-06T11:41:34.739Z,13.28
2019-05-06T11:44:09.039Z,13.03
2019-05-06T11:46:38.454Z,13.88
2019-05-06T11:49:08.791Z,17.05
2019-05-06T11:51:39.214Z,12.98
2019-05-06T11:54:19.434Z,15.05
2019-05-06T11:56:50.700Z,13.80
2019-05-06T11:59:15.283Z,13.13
2019-05-06T12:01:47.336Z,8.33
2019-05-06T12:04:17.673Z,10.08
2019-05-06T12:06:48.024Z,7.67
2019-05-06T12:09:19.504Z,9.20
2019-05-06T12:11:52.649Z,8.05
2019-05-06T12:14:22.670Z,8.88
2019-05-06T12:16:55.133Z,7.22
2019-05-06T12:19:25.286Z,6.95
2019-05-06T12:21:55.638Z,5.87
2019-05-06T12:24:25.969Z,7.42
2019-05-06T12:26:56.307Z,7.47
2019-05-06T12:29:26.644Z,8.85
2019-05-06T12:32:03.521Z,10.72
2019-05-06T12:34:33.338Z,9.33
2019-05-06T12:37:05.319Z,12.55
2019-05-06T12:39:35.655Z,9.93
2019-05-06T12:42:11.716Z,10.25
2019-05-06T12:44:43.523Z,8.48
2019-05-06T12:47:15.517Z,10.00
2019-05-06T12:49:45.846Z,9.40
2019-05-06T12:52:16.185Z,9.85
2019-05-06T12:54:46.521Z,8.13
2019-05-06T12:57:16.924Z,5.90
2019-05-06T12:59:48.222Z,6.92
2019-05-06T13:02:18.556Z,7.15
2019-05-06T13:04:56.085Z,8.90
2019-05-06T13:07:22.575Z,12.13
2019-05-06T13:09:53.063Z,7.28
2019-05-06T13:12:26.042Z,8.70
2019-05-06T13:14:56.400Z,9.40
2019-05-06T13:17:29.343Z,11.00
2019-05-06T13:19:59.773Z,10.08
2019-05-06T13:22:40.881Z,9.63
2019-05-06T13:25:13.583Z,11.63
2019-05-06T13:27:46.026Z,9.00
2019-05-06T13:30:16.810Z,7.70
2019-05-06T13:32:48.771Z,9.08
2019-05-06T13:35:19.479Z,8.48
2019-05-06T13:37:49.813Z,9.23
2019-05-06T13:40:22.773Z,10.25
2019-05-06T13:43:06.012Z,9.83
2019-05-06T13:45:37.703Z,10.90
2019-05-06T13:48:13.303Z,13.35
2019-05-06T13:50:45.509Z,10.98
2019-05-06T13:53:15.838Z,14.05
2019-05-06T13:55:47.461Z,12.23
2019-05-06T13:58:17.782Z,11.00
2019-05-06T14:00:48.784Z,9.30
2019-05-06T14:03:19.121Z,12.25
2019-05-06T14:05:49.472Z,9.05
2019-05-06T14:08:21.700Z,10.30
2019-05-06T14:10:59.111Z,9.75
2019-05-06T14:13:23.887Z,11.75
2019-05-06T14:15:54.247Z,10.98
2019-05-06T14:18:24.584Z,10.03
2019-05-06T14:20:54.923Z,9.90
2019-05-06T14:23:25.258Z,8.95
2019-05-06T14:25:57.313Z,12.40
2019-05-06T14:28:44.702Z,9.70
2019-05-06T14:31:19.345Z,10.63
2019-05-06T14:33:52.103Z,9.03
2019-05-06T14:36:22.892Z,9.55
2019-05-06T14:38:54.462Z,11.48
2019-05-06T14:41:27.380Z,8.58
2019-05-06T14:43:57.914Z,9.23
2019-05-06T14:46:29.909Z,10.88
2019-05-06T14:49:04.080Z,8.55
2019-05-06T14:51:32.903Z,12.23
2019-05-06T14:54:03.384Z,11.83
2019-05-06T14:56:38.083Z,9.73
2019-05-06T14:59:08.423Z,8.93
2019-05-06T15:01:39.511Z,11.43
2019-05-06T15:04:12.556Z,11.12
2019-05-06T15:06:43.031Z,14.50
2019-05-06T15:09:13.711Z,8.95
2019-05-06T15:11:44.146Z,13.30
2019-05-06T15:14:14.879Z,12.50
2019-05-06T15:16:45.238Z,12.45
2019-05-06T15:19:15.578Z,13.50
2019-05-06T15:21:45.940Z,8.50
2019-05-06T15:24:20.972Z,8.03
2019-05-06T15:26:49.260Z,10.45
2019-05-06T15:29:19.603Z,10.43
2019-05-06T15:32:09.839Z,11.93
2019-05-06T15:34:47.583Z,13.10
2019-05-06T15:37:35.877Z,12.40
2019-05-06T15:40:08.189Z,9.55
2019-05-06T15:42:38.529Z,9.35
2019-05-06T15:45:12.457Z,11.68
2019-05-06T15:47:42.894Z,12.55
2019-05-06T15:50:14.720Z,11.22
2019-05-06T15:52:45.062Z,8.40
2019-05-06T15:55:15.752Z,9.73
2019-05-06T15:57:46.089Z,9.63
2019-05-06T16:00:19.796Z,9.08
2019-05-06T16:02:52.784Z,10.05
2019-05-06T16:05:26.341Z,9.38
2019-05-06T16:07:54.605Z,5.55
2019-05-06T16:10:25.206Z,7.00
2019-05-06T16:12:55.541Z,7.10
2019-05-06T16:15:25.877Z,7.50
2019-05-06T16:17:56.221Z,7.22
2019-05-06T16:20:26.546Z,9.73
2019-05-06T16:23:07.627Z,7.20
2019-05-06T16:25:37.960Z,8.00
2019-05-06T16:28:08.291Z,7.08
2019-05-06T16:30:38.633Z,6.33
2019-05-06T16:33:08.961Z,7.42
2019-05-06T16:35:39.294Z,6.97
2019-05-06T16:38:09.627Z,6.65
2019-05-06T16:40:42.639Z,5.10
2019-05-06T16:43:13.066Z,6.20
2019-05-06T16:45:45.520Z,7.92
2019-05-06T16:48:15.458Z,6.67
2019-05-06T16:50:46.762Z,5.62
2019-05-06T16:53:17.093Z,6.95
2019-05-06T16:55:55.630Z,5.05
2019-05-06T16:58:27.768Z,6.78
2019-05-06T17:00:58.103Z,6.70
2019-05-06T17:03:46.524Z,4.78
2019-05-06T17:06:27.419Z,6.75
2019-05-06T17:08:57.752Z,9.95
2019-05-06T17:11:33.408Z,5.05
2019-05-06T17:14:00.125Z,7.12
2019-05-06T17:16:30.462Z,5.67
2019-05-06T17:19:00.798Z,6.67
2019-05-06T17:21:33.256Z,7.15
2019-05-06T17:24:03.174Z,4.87
2019-05-06T17:26:34.000Z,4.17
2019-05-06T17:29:09.038Z,4.08
2019-05-06T17:31:43.938Z,5.22
2019-05-06T17:34:15.934Z,4.78
2019-05-06T17:36:46.844Z,3.92
2019-05-06T17:39:17.177Z,7.05
2019-05-06T17:41:49.078Z,5.85
2019-05-06T17:44:22.768Z,4.62
2019-05-06T17:46:59.043Z,8.33
2019-05-06T17:49:31.014Z,8.73
2019-05-06T17:52:08.956Z,6.15
2019-05-06T17:54:39.292Z,7.55
2019-05-06T17:57:09.628Z,6.95
2019-05-06T17:59:41.940Z,5.58
2019-05-06T18:02:14.930Z,6.55
2019-05-06T18:04:45.512Z,3.35
2019-05-06T18:07:15.842Z,3.80
2019-05-06T18:09:46.181Z,4.03
2019-05-06T18:12:18.143Z,5.47
2019-05-06T18:14:48.490Z,3.58
2019-05-06T18:17:18.821Z,5.53
2019-05-06T18:19:49.175Z,6.28
2019-05-06T18:22:19.498Z,5.17
2019-05-06T18:24:49.896Z,4.80
2019-05-06T18:27:22.487Z,4.72
2019-05-06T18:29:53.371Z,7.35
2019-05-06T18:32:23.678Z,4.95
2019-05-06T18:34:53.994Z,4.85
2019-05-06T18:37:24.336Z,4.17
2019-05-06T18:39:54.667Z,6.10
2019-05-06T18:42:25.070Z,6.03
2019-05-06T18:44:55.419Z,4.95
2019-05-06T18:47:25.741Z,7.50
2019-05-06T18:49:57.131Z,7.25
2019-05-06T18:52:27.460Z,4.78
2019-05-06T18:54:58.045Z,4.80
2019-05-06T18:57:28.314Z,3.98
2019-05-06T18:59:58.638Z,5.67
2019-05-06T19:02:28.972Z,5.25
2019-05-06T19:05:07.141Z,6.45
2019-05-06T19:07:37.483Z,5.08
2019-05-06T19:10:22.984Z,10.38
2019-05-06T19:12:53.326Z,4.12
2019-05-06T19:15:23.650Z,5.58
2019-05-06T19:17:54.004Z,6.40
2019-05-06T19:20:24.589Z,4.78
2019-05-06T19:22:54.957Z,5.20
2019-05-06T19:25:26.549Z,5.65
2019-05-06T19:27:57.561Z,4.55
2019-05-06T19:30:27.904Z,4.00
2019-05-06T19:32:58.339Z,1.77
2019-05-06T19:35:32.048Z,2.17
2019-05-06T19:38:03.004Z,1.82
2019-05-06T19:40:33.711Z,1.70
2019-05-06T19:43:04.034Z,1.42
2019-05-06T19:45:34.707Z,2.65
2019-05-06T19:48:05.063Z,1.77
2019-05-06T19:50:36.812Z,1.95
2019-05-06T19:53:07.212Z,1.95
2019-05-06T19:55:37.829Z,2.25
2019-05-06T19:58:08.158Z,3.30
2019-05-06T20:00:38.496Z,1.72
2019-05-06T20:03:08.821Z,1.15
2019-05-06T20:05:40.879Z,2.15
2019-05-06T20:08:28.949Z,2.47
2019-05-06T20:11:03.855Z,2.25
2019-05-06T20:13:35.254Z,1.10
2019-05-06T20:16:05.596Z,1.92
2019-05-06T20:18:36.896Z,2.17
2019-05-06T20:21:07.236Z,2.58
2019-05-06T20:23:37.567Z,2.85
2019-05-06T20:26:07.919Z,2.90
2019-05-06T20:28:38.237Z,1.87
2019-05-06T20:31:08.582Z,2.65
2019-05-06T20:33:38.973Z,2.00
2019-05-06T20:36:09.320Z,1.60
2019-05-06T20:38:39.657Z,4.15
2019-05-06T20:41:09.997Z,2.72
2019-05-06T20:43:42.311Z,3.33
2019-05-06T20:46:12.532Z,1.92
2019-05-06T20:48:43.926Z,3.65
2019-05-06T20:51:14.264Z,2.25
2019-05-06T20:53:44.593Z,1.90
2019-05-06T20:56:14.936Z,3.08
2019-05-06T20:58:45.334Z,2.52
2019-05-06T21:01:15.672Z,7.03
2019-05-06T21:03:45.999Z,5.22
2019-05-06T21:06:16.339Z,6.25
2019-05-06T21:08:47.630Z,6.08
2019-05-06T21:11:26.614Z,4.08
2019-05-06T21:13:50.487Z,4.70
2019-05-06T21:16:22.484Z,3.72
2019-05-06T21:18:52.939Z,3.90
2019-05-06T21:21:24.240Z,3.35
2019-05-06T21:24:06.301Z,4.40
2019-05-06T21:26:38.061Z,3.22
2019-05-06T21:29:08.380Z,2.45
2019-05-06T21:31:38.723Z,2.77
2019-05-06T21:34:09.058Z,2.55
2019-05-06T21:36:39.401Z,3.15
2019-05-06T21:39:22.542Z,2.37
2019-05-06T21:41:52.904Z,2.42
2019-05-06T21:44:23.228Z,2.40
2019-05-06T21:46:54.093Z,2.95
2019-05-06T21:49:24.477Z,3.95
2019-05-06T21:51:54.821Z,3.45
2019-05-06T21:54:25.154Z,2.90
2019-05-06T21:56:55.498Z,3.30
2019-05-06T21:59:25.820Z,3.45
2019-05-06T22:02:11.981Z,3.30
2019-05-06T22:04:43.301Z,3.57
2019-05-06T22:07:13.828Z,4.65
2019-05-06T22:09:44.157Z,3.08
2019-05-06T22:12:14.488Z,3.85
2019-05-06T22:14:44.819Z,3.33
2019-05-06T22:17:15.161Z,2.47
2019-05-06T22:19:45.491Z,4.00
2019-05-06T22:22:20.383Z,2.60
2019-05-06T22:24:55.516Z,4.37
2019-05-06T22:27:23.280Z,3.33
2019-05-06T22:29:53.606Z,2.80
2019-05-06T22:32:23.947Z,3.37
2019-05-06T22:34:54.272Z,4.60
2019-05-06T22:37:24.625Z,2.52
2019-05-06T22:39:55.018Z,2.87
2019-05-06T22:42:25.358Z,4.30
2019-05-06T22:44:55.685Z,3.35
2019-05-06T22:47:26.029Z,2.83
2019-05-06T22:49:56.353Z,3.42
2019-05-06T22:52:26.696Z,2.77
2019-05-06T22:54:57.030Z,3.72
2019-05-06T22:57:27.370Z,3.72
2019-05-06T22:59:57.693Z,5.10
2019-05-06T23:02:45.809Z,4.08
2019-05-06T23:05:16.204Z,3.35
2019-05-06T23:07:46.550Z,3.65
2019-05-06T23:10:17.046Z,3.58
2019-05-06T23:12:47.404Z,3.08
2019-05-06T23:15:17.738Z,2.95
2019-05-06T23:17:48.081Z,4.67
2019-05-06T23:20:18.472Z,3.02
2019-05-06T23:22:48.824Z,3.33
2019-05-06T23:25:19.148Z,4.10
2019-05-06T23:27:49.491Z,3.77
2019-05-06T23:30:19.815Z,4.15
2019-05-06T23:32:50.159Z,3.25
2019-05-06T23:35:22.015Z,4.65
2019-05-06T23:38:23.122Z,3.75
2019-05-06T23:41:48.050Z,3.50
2019-05-06T23:45:13.024Z,2.58
2019-05-06T23:48:38.076Z,3.52
2019-05-06T23:52:04.057Z,3.22
2019-05-06T23:55:29.470Z,4.45
2019-05-06T23:58:14.565Z,3.35
